sensor_id;sensor_type;location;lat;lon;timestamp;P1;durP1;ratioP1;P2;durP2;ratioP2
64293;SDS011;50636;45.596;5.258;2023-01-20T00:01:19;30.95;;;19.25;;
64293;SDS011;50636;45.596;5.258;2023-01-20T00:03:45;23.27;;;16.85;;
64293;SDS011;50636;45.596;5.258;2023-01-20T00:06:12;29.52;;;16.65;;
64293;SDS011;50636;45.596;5.258;2023-01-20T00:08:38;31.35;;;19.75;;
64293;SDS011;50636;45.596;5.258;2023-01-20T00:11:05;30.25;;;19.27;;
64293;SDS011;50636;45.596;5.258;2023-01-20T00:13:32;35.80;;;22.45;;
64293;SDS011;50636;45.596;5.258;2023-01-20T00:16:00;32.60;;;19.25;;
64293;SDS011;50636;45.596;5.258;2023-01-20T00:18:27;32.58;;;21.25;;
64293;SDS011;50636;45.596;5.258;2023-01-20T00:20:53;34.38;;;21.95;;
64293;SDS011;50636;45.596;5.258;2023-01-20T00:23:19;35.85;;;24.13;;
64293;SDS011;50636;45.596;5.258;2023-01-20T00:25:44;36.08;;;28.33;;
64293;SDS011;50636;45.596;5.258;2023-01-20T00:28:10;49.17;;;28.70;;
64293;SDS011;50636;45.596;5.258;2023-01-20T00:30:36;38.13;;;25.75;;
64293;SDS011;50636;45.596;5.258;2023-01-20T00:33:01;36.33;;;23.58;;
64293;SDS011;50636;45.596;5.258;2023-01-20T00:35:27;37.25;;;26.73;;
64293;SDS011;50636;45.596;5.258;2023-01-20T00:37:52;39.90;;;24.55;;
64293;SDS011;50636;45.596;5.258;2023-01-20T00:40:18;38.75;;;24.98;;
64293;SDS011;50636;45.596;5.258;2023-01-20T00:42:44;33.58;;;24.90;;
64293;SDS011;50636;45.596;5.258;2023-01-20T00:45:09;39.65;;;27.38;;
64293;SDS011;50636;45.596;5.258;2023-01-20T00:47:35;40.75;;;25.75;;
64293;SDS011;50636;45.596;5.258;2023-01-20T00:50:01;41.05;;;26.63;;
64293;SDS011;50636;45.596;5.258;2023-01-20T00:52:27;28.98;;;19.50;;
64293;SDS011;50636;45.596;5.258;2023-01-20T00:54:53;29.75;;;21.90;;
64293;SDS011;50636;45.596;5.258;2023-01-20T00:57:18;32.25;;;21.85;;
64293;SDS011;50636;45.596;5.258;2023-01-20T00:59:44;31.63;;;20.17;;
64293;SDS011;50636;45.596;5.258;2023-01-20T01:02:09;25.75;;;17.65;;
64293;SDS011;50636;45.596;5.258;2023-01-20T01:04:35;31.08;;;22.48;;
64293;SDS011;50636;45.596;5.258;2023-01-20T01:07:01;26.95;;;20.45;;
64293;SDS011;50636;45.596;5.258;2023-01-20T01:09:26;55.22;;;39.38;;
64293;SDS011;50636;45.596;5.258;2023-01-20T01:11:52;31.85;;;22.85;;
64293;SDS011;50636;45.596;5.258;2023-01-20T01:14:21;34.50;;;24.88;;
64293;SDS011;50636;45.596;5.258;2023-01-20T01:16:46;27.65;;;18.67;;
64293;SDS011;50636;45.596;5.258;2023-01-20T01:19:12;26.00;;;18.08;;
64293;SDS011;50636;45.596;5.258;2023-01-20T01:21:37;29.30;;;20.25;;
64293;SDS011;50636;45.596;5.258;2023-01-20T01:24:03;31.52;;;19.70;;
64293;SDS011;50636;45.596;5.258;2023-01-20T01:26:28;31.42;;;20.63;;
64293;SDS011;50636;45.596;5.258;2023-01-20T01:28:54;30.55;;;18.05;;
64293;SDS011;50636;45.596;5.258;2023-01-20T01:31:20;32.08;;;21.80;;
64293;SDS011;50636;45.596;5.258;2023-01-20T01:33:48;31.25;;;18.15;;
64293;SDS011;50636;45.596;5.258;2023-01-20T01:36:14;28.92;;;19.73;;
64293;SDS011;50636;45.596;5.258;2023-01-20T01:38:41;33.55;;;20.73;;
64293;SDS011;50636;45.596;5.258;2023-01-20T01:41:09;24.35;;;17.02;;
64293;SDS011;50636;45.596;5.258;2023-01-20T01:43:37;24.33;;;16.05;;
64293;SDS011;50636;45.596;5.258;2023-01-20T01:46:03;28.02;;;18.50;;
64293;SDS011;50636;45.596;5.258;2023-01-20T01:51:02;28.95;;;19.40;;
64293;SDS011;50636;45.596;5.258;2023-01-20T01:53:33;28.52;;;19.55;;
64293;SDS011;50636;45.596;5.258;2023-01-20T01:56:04;65.93;;;52.85;;
64293;SDS011;50636;45.596;5.258;2023-01-20T01:58:31;45.17;;;35.38;;
64293;SDS011;50636;45.596;5.258;2023-01-20T02:00:59;34.33;;;26.77;;
64293;SDS011;50636;45.596;5.258;2023-01-20T02:03:27;27.20;;;20.40;;
64293;SDS011;50636;45.596;5.258;2023-01-20T02:06:08;28.17;;;19.75;;
64293;SDS011;50636;45.596;5.258;2023-01-20T02:08:35;24.95;;;17.52;;
64293;SDS011;50636;45.596;5.258;2023-01-20T02:11:02;32.88;;;19.17;;
64293;SDS011;50636;45.596;5.258;2023-01-20T02:13:27;28.23;;;18.35;;
64293;SDS011;50636;45.596;5.258;2023-01-20T02:18:38;28.43;;;16.90;;
64293;SDS011;50636;45.596;5.258;2023-01-20T02:34:37;29.83;;;18.05;;
64293;SDS011;50636;45.596;5.258;2023-01-20T02:37:45;25.92;;;18.80;;
64293;SDS011;50636;45.596;5.258;2023-01-20T02:43:10;24.02;;;17.27;;
64293;SDS011;50636;45.596;5.258;2023-01-20T02:51:35;30.50;;;19.33;;
64293;SDS011;50636;45.596;5.258;2023-01-20T02:54:09;28.55;;;18.50;;
64293;SDS011;50636;45.596;5.258;2023-01-20T02:56:38;30.75;;;17.77;;
64293;SDS011;50636;45.596;5.258;2023-01-20T02:59:09;24.00;;;17.15;;
64293;SDS011;50636;45.596;5.258;2023-01-20T03:01:49;21.15;;;16.35;;
64293;SDS011;50636;45.596;5.258;2023-01-20T03:04:22;21.13;;;16.20;;
64293;SDS011;50636;45.596;5.258;2023-01-20T03:06:52;23.58;;;15.20;;
64293;SDS011;50636;45.596;5.258;2023-01-20T03:09:23;26.05;;;19.27;;
64293;SDS011;50636;45.596;5.258;2023-01-20T03:11:59;25.45;;;16.63;;
64293;SDS011;50636;45.596;5.258;2023-01-20T03:14:28;23.17;;;17.17;;
64293;SDS011;50636;45.596;5.258;2023-01-20T03:16:54;30.40;;;18.13;;
64293;SDS011;50636;45.596;5.258;2023-01-20T03:19:20;26.25;;;18.63;;
64293;SDS011;50636;45.596;5.258;2023-01-20T03:21:46;27.20;;;19.13;;
64293;SDS011;50636;45.596;5.258;2023-01-20T03:24:12;24.42;;;16.45;;
64293;SDS011;50636;45.596;5.258;2023-01-20T03:26:38;24.20;;;16.40;;
64293;SDS011;50636;45.596;5.258;2023-01-20T03:29:04;24.65;;;16.67;;
64293;SDS011;50636;45.596;5.258;2023-01-20T03:31:33;30.48;;;18.58;;
64293;SDS011;50636;45.596;5.258;2023-01-20T03:34:04;21.90;;;16.33;;
64293;SDS011;50636;45.596;5.258;2023-01-20T03:36:35;21.90;;;17.42;;
64293;SDS011;50636;45.596;5.258;2023-01-20T03:39:02;20.13;;;15.10;;
64293;SDS011;50636;45.596;5.258;2023-01-20T03:41:38;24.58;;;17.20;;
64293;SDS011;50636;45.596;5.258;2023-01-20T03:44:10;22.58;;;16.10;;
64293;SDS011;50636;45.596;5.258;2023-01-20T03:49:53;18.27;;;14.35;;
64293;SDS011;50636;45.596;5.258;2023-01-20T03:52:40;26.25;;;15.85;;
64293;SDS011;50636;45.596;5.258;2023-01-20T03:55:45;26.98;;;16.65;;
64293;SDS011;50636;45.596;5.258;2023-01-20T03:58:08;26.20;;;17.92;;
64293;SDS011;50636;45.596;5.258;2023-01-20T04:00:39;25.35;;;16.73;;
64293;SDS011;50636;45.596;5.258;2023-01-20T04:03:08;22.13;;;16.58;;
64293;SDS011;50636;45.596;5.258;2023-01-20T04:05:40;23.95;;;17.08;;
64293;SDS011;50636;45.596;5.258;2023-01-20T04:08:08;31.88;;;19.35;;
64293;SDS011;50636;45.596;5.258;2023-01-20T04:10:35;21.67;;;16.25;;
64293;SDS011;50636;45.596;5.258;2023-01-20T04:13:04;21.88;;;16.77;;
64293;SDS011;50636;45.596;5.258;2023-01-20T04:15:38;25.13;;;14.50;;
64293;SDS011;50636;45.596;5.258;2023-01-20T04:20:42;18.60;;;13.30;;
64293;SDS011;50636;45.596;5.258;2023-01-20T04:23:30;19.30;;;12.55;;
64293;SDS011;50636;45.596;5.258;2023-01-20T04:26:00;19.48;;;13.40;;
64293;SDS011;50636;45.596;5.258;2023-01-20T04:28:25;20.45;;;14.02;;
64293;SDS011;50636;45.596;5.258;2023-01-20T04:30:51;16.73;;;13.45;;
64293;SDS011;50636;45.596;5.258;2023-01-20T04:33:17;17.38;;;13.45;;
64293;SDS011;50636;45.596;5.258;2023-01-20T04:35:42;20.95;;;13.35;;
64293;SDS011;50636;45.596;5.258;2023-01-20T04:38:08;18.77;;;13.60;;
64293;SDS011;50636;45.596;5.258;2023-01-20T04:40:34;18.63;;;13.05;;
64293;SDS011;50636;45.596;5.258;2023-01-20T04:42:59;18.23;;;12.45;;
64293;SDS011;50636;45.596;5.258;2023-01-20T04:45:25;21.00;;;12.13;;
64293;SDS011;50636;45.596;5.258;2023-01-20T04:47:51;17.90;;;12.10;;
64293;SDS011;50636;45.596;5.258;2023-01-20T04:50:16;21.52;;;13.73;;
64293;SDS011;50636;45.596;5.258;2023-01-20T04:52:42;20.20;;;12.70;;
64293;SDS011;50636;45.596;5.258;2023-01-20T04:55:08;14.98;;;11.02;;
64293;SDS011;50636;45.596;5.258;2023-01-20T04:57:34;17.92;;;11.23;;
64293;SDS011;50636;45.596;5.258;2023-01-20T05:00:00;16.35;;;11.13;;
64293;SDS011;50636;45.596;5.258;2023-01-20T05:02:25;17.23;;;11.00;;
64293;SDS011;50636;45.596;5.258;2023-01-20T05:04:51;15.30;;;11.13;;
64293;SDS011;50636;45.596;5.258;2023-01-20T05:07:17;20.85;;;11.52;;
64293;SDS011;50636;45.596;5.258;2023-01-20T05:09:43;15.73;;;10.15;;
64293;SDS011;50636;45.596;5.258;2023-01-20T05:12:08;17.13;;;11.32;;
64293;SDS011;50636;45.596;5.258;2023-01-20T05:14:34;16.92;;;11.43;;
64293;SDS011;50636;45.596;5.258;2023-01-20T05:16:59;20.80;;;12.27;;
64293;SDS011;50636;45.596;5.258;2023-01-20T05:19:25;21.17;;;12.98;;
64293;SDS011;50636;45.596;5.258;2023-01-20T05:21:51;19.08;;;11.32;;
64293;SDS011;50636;45.596;5.258;2023-01-20T05:24:16;17.88;;;12.02;;
64293;SDS011;50636;45.596;5.258;2023-01-20T05:26:42;16.15;;;13.05;;
64293;SDS011;50636;45.596;5.258;2023-01-20T05:29:08;17.35;;;12.93;;
64293;SDS011;50636;45.596;5.258;2023-01-20T05:31:33;20.60;;;12.82;;
64293;SDS011;50636;45.596;5.258;2023-01-20T05:34:01;19.85;;;11.95;;
64293;SDS011;50636;45.596;5.258;2023-01-20T05:36:27;16.23;;;12.25;;
64293;SDS011;50636;45.596;5.258;2023-01-20T05:38:53;18.17;;;12.75;;
64293;SDS011;50636;45.596;5.258;2023-01-20T05:41:22;22.55;;;12.50;;
64293;SDS011;50636;45.596;5.258;2023-01-20T05:43:48;19.55;;;13.00;;
64293;SDS011;50636;45.596;5.258;2023-01-20T05:46:17;19.83;;;12.77;;
64293;SDS011;50636;45.596;5.258;2023-01-20T05:48:42;16.85;;;12.45;;
64293;SDS011;50636;45.596;5.258;2023-01-20T05:51:08;18.38;;;13.50;;
64293;SDS011;50636;45.596;5.258;2023-01-20T05:53:34;18.90;;;14.88;;
64293;SDS011;50636;45.596;5.258;2023-01-20T05:56:00;19.52;;;12.48;;
64293;SDS011;50636;45.596;5.258;2023-01-20T05:58:26;32.50;;;15.38;;
64293;SDS011;50636;45.596;5.258;2023-01-20T06:00:53;26.27;;;12.90;;
64293;SDS011;50636;45.596;5.258;2023-01-20T06:03:18;22.55;;;12.85;;
64293;SDS011;50636;45.596;5.258;2023-01-20T06:05:44;25.50;;;14.48;;
64293;SDS011;50636;45.596;5.258;2023-01-20T06:08:09;20.73;;;13.35;;
64293;SDS011;50636;45.596;5.258;2023-01-20T06:10:35;20.75;;;13.43;;
64293;SDS011;50636;45.596;5.258;2023-01-20T06:13:00;19.73;;;13.15;;
64293;SDS011;50636;45.596;5.258;2023-01-20T06:15:26;19.42;;;12.40;;
64293;SDS011;50636;45.596;5.258;2023-01-20T06:17:53;19.25;;;12.90;;
64293;SDS011;50636;45.596;5.258;2023-01-20T06:20:19;18.20;;;12.30;;
64293;SDS011;50636;45.596;5.258;2023-01-20T06:22:45;18.98;;;11.65;;
64293;SDS011;50636;45.596;5.258;2023-01-20T06:25:11;21.25;;;13.10;;
64293;SDS011;50636;45.596;5.258;2023-01-20T06:27:36;17.15;;;12.43;;
64293;SDS011;50636;45.596;5.258;2023-01-20T06:30:03;21.38;;;12.50;;
64293;SDS011;50636;45.596;5.258;2023-01-20T06:32:30;17.73;;;12.63;;
64293;SDS011;50636;45.596;5.258;2023-01-20T06:34:55;30.30;;;14.23;;
64293;SDS011;50636;45.596;5.258;2023-01-20T06:37:21;29.15;;;15.38;;
64293;SDS011;50636;45.596;5.258;2023-01-20T06:39:46;18.08;;;12.70;;
64293;SDS011;50636;45.596;5.258;2023-01-20T06:42:12;27.20;;;12.63;;
64293;SDS011;50636;45.596;5.258;2023-01-20T06:44:38;23.58;;;14.90;;
64293;SDS011;50636;45.596;5.258;2023-01-20T06:47:03;21.13;;;14.13;;
64293;SDS011;50636;45.596;5.258;2023-01-20T06:49:29;22.40;;;13.68;;
64293;SDS011;50636;45.596;5.258;2023-01-20T06:51:55;25.75;;;16.65;;
64293;SDS011;50636;45.596;5.258;2023-01-20T06:54:20;27.98;;;17.08;;
64293;SDS011;50636;45.596;5.258;2023-01-20T06:56:46;25.98;;;17.73;;
64293;SDS011;50636;45.596;5.258;2023-01-20T06:59:12;26.60;;;17.80;;
64293;SDS011;50636;45.596;5.258;2023-01-20T07:01:38;24.45;;;15.82;;
64293;SDS011;50636;45.596;5.258;2023-01-20T07:04:04;36.40;;;17.63;;
64293;SDS011;50636;45.596;5.258;2023-01-20T07:06:37;24.27;;;15.18;;
64293;SDS011;50636;45.596;5.258;2023-01-20T07:09:05;23.98;;;16.08;;
64293;SDS011;50636;45.596;5.258;2023-01-20T07:11:33;19.58;;;14.18;;
64293;SDS011;50636;45.596;5.258;2023-01-20T07:14:02;22.77;;;15.50;;
64293;SDS011;50636;45.596;5.258;2023-01-20T07:16:28;29.15;;;17.20;;
64293;SDS011;50636;45.596;5.258;2023-01-20T07:18:54;24.67;;;14.52;;
64293;SDS011;50636;45.596;5.258;2023-01-20T07:21:20;27.75;;;16.13;;
64293;SDS011;50636;45.596;5.258;2023-01-20T07:23:46;19.42;;;13.98;;
64293;SDS011;50636;45.596;5.258;2023-01-20T07:26:13;26.70;;;15.88;;
64293;SDS011;50636;45.596;5.258;2023-01-20T07:28:40;36.90;;;20.30;;
64293;SDS011;50636;45.596;5.258;2023-01-20T07:31:08;28.08;;;15.65;;
64293;SDS011;50636;45.596;5.258;2023-01-20T07:33:35;22.88;;;13.40;;
64293;SDS011;50636;45.596;5.258;2023-01-20T07:36:01;22.50;;;14.70;;
64293;SDS011;50636;45.596;5.258;2023-01-20T07:38:27;25.02;;;16.17;;
64293;SDS011;50636;45.596;5.258;2023-01-20T07:41:00;18.52;;;15.45;;
64293;SDS011;50636;45.596;5.258;2023-01-20T07:43:28;20.58;;;15.75;;
64293;SDS011;50636;45.596;5.258;2023-01-20T07:45:54;26.98;;;14.18;;
64293;SDS011;50636;45.596;5.258;2023-01-20T07:48:26;27.58;;;15.00;;
64293;SDS011;50636;45.596;5.258;2023-01-20T07:50:54;21.35;;;15.50;;
64293;SDS011;50636;45.596;5.258;2023-01-20T07:53:26;16.50;;;11.50;;
64293;SDS011;50636;45.596;5.258;2023-01-20T07:56:03;22.42;;;13.10;;
64293;SDS011;50636;45.596;5.258;2023-01-20T07:58:34;21.35;;;12.20;;
64293;SDS011;50636;45.596;5.258;2023-01-20T08:04:01;18.23;;;9.93;;
64293;SDS011;50636;45.596;5.258;2023-01-20T08:06:28;11.50;;;9.18;;
64293;SDS011;50636;45.596;5.258;2023-01-20T08:08:54;18.95;;;9.65;;
64293;SDS011;50636;45.596;5.258;2023-01-20T08:11:21;10.60;;;8.45;;
64293;SDS011;50636;45.596;5.258;2023-01-20T08:13:47;14.07;;;8.93;;
64293;SDS011;50636;45.596;5.258;2023-01-20T08:16:14;16.02;;;10.02;;
64293;SDS011;50636;45.596;5.258;2023-01-20T08:18:42;14.73;;;9.85;;
64293;SDS011;50636;45.596;5.258;2023-01-20T08:21:15;24.08;;;10.70;;
64293;SDS011;50636;45.596;5.258;2023-01-20T08:23:42;22.60;;;10.52;;
64293;SDS011;50636;45.596;5.258;2023-01-20T08:26:08;17.45;;;10.05;;
64293;SDS011;50636;45.596;5.258;2023-01-20T08:28:34;24.98;;;11.73;;
64293;SDS011;50636;45.596;5.258;2023-01-20T08:31:04;17.40;;;10.52;;
64293;SDS011;50636;45.596;5.258;2023-01-20T08:33:38;15.60;;;10.30;;
64293;SDS011;50636;45.596;5.258;2023-01-20T08:36:07;27.75;;;11.52;;
64293;SDS011;50636;45.596;5.258;2023-01-20T08:38:35;34.83;;;11.00;;
64293;SDS011;50636;45.596;5.258;2023-01-20T08:41:05;26.13;;;10.15;;
64293;SDS011;50636;45.596;5.258;2023-01-20T08:43:38;21.67;;;10.90;;
64293;SDS011;50636;45.596;5.258;2023-01-20T08:46:08;21.42;;;10.23;;
64293;SDS011;50636;45.596;5.258;2023-01-20T08:48:36;18.92;;;11.20;;
64293;SDS011;50636;45.596;5.258;2023-01-20T08:51:03;15.30;;;10.45;;
64293;SDS011;50636;45.596;5.258;2023-01-20T08:53:31;18.38;;;10.15;;
64293;SDS011;50636;45.596;5.258;2023-01-20T08:55:58;19.17;;;11.18;;
64293;SDS011;50636;45.596;5.258;2023-01-20T08:58:25;22.40;;;10.50;;
64293;SDS011;50636;45.596;5.258;2023-01-20T09:00:51;15.63;;;10.10;;
64293;SDS011;50636;45.596;5.258;2023-01-20T09:03:18;22.00;;;10.57;;
64293;SDS011;50636;45.596;5.258;2023-01-20T09:05:44;20.75;;;11.25;;
64293;SDS011;50636;45.596;5.258;2023-01-20T09:08:10;18.85;;;9.27;;
64293;SDS011;50636;45.596;5.258;2023-01-20T09:10:36;17.80;;;9.75;;
64293;SDS011;50636;45.596;5.258;2023-01-20T09:13:01;16.55;;;9.80;;
64293;SDS011;50636;45.596;5.258;2023-01-20T09:15:27;19.27;;;9.18;;
64293;SDS011;50636;45.596;5.258;2023-01-20T09:17:53;15.18;;;8.25;;
64293;SDS011;50636;45.596;5.258;2023-01-20T09:20:18;15.43;;;7.90;;
64293;SDS011;50636;45.596;5.258;2023-01-20T09:22:44;14.95;;;8.38;;
64293;SDS011;50636;45.596;5.258;2023-01-20T09:25:09;11.65;;;8.27;;
64293;SDS011;50636;45.596;5.258;2023-01-20T09:27:35;12.05;;;6.90;;
64293;SDS011;50636;45.596;5.258;2023-01-20T09:30:01;8.50;;;7.40;;
64293;SDS011;50636;45.596;5.258;2023-01-20T09:32:28;18.48;;;9.45;;
64293;SDS011;50636;45.596;5.258;2023-01-20T09:34:54;11.02;;;7.65;;
64293;SDS011;50636;45.596;5.258;2023-01-20T09:37:21;13.15;;;8.32;;
64293;SDS011;50636;45.596;5.258;2023-01-20T09:40:10;10.85;;;7.90;;
64293;SDS011;50636;45.596;5.258;2023-01-20T09:46:14;8.73;;;7.15;;
64293;SDS011;50636;45.596;5.258;2023-01-20T09:49:01;16.95;;;7.72;;
64293;SDS011;50636;45.596;5.258;2023-01-20T09:52:24;11.60;;;7.88;;
64293;SDS011;50636;45.596;5.258;2023-01-20T09:55:14;10.45;;;8.02;;
64293;SDS011;50636;45.596;5.258;2023-01-20T09:57:47;23.20;;;8.75;;
64293;SDS011;50636;45.596;5.258;2023-01-20T10:00:23;15.50;;;7.72;;
64293;SDS011;50636;45.596;5.258;2023-01-20T10:02:58;11.90;;;7.53;;
64293;SDS011;50636;45.596;5.258;2023-01-20T10:05:36;27.73;;;12.00;;
64293;SDS011;50636;45.596;5.258;2023-01-20T10:08:09;14.02;;;8.82;;
64293;SDS011;50636;45.596;5.258;2023-01-20T10:10:47;20.00;;;12.93;;
64293;SDS011;50636;45.596;5.258;2023-01-20T10:13:26;23.05;;;15.48;;
64293;SDS011;50636;45.596;5.258;2023-01-20T10:15:56;18.00;;;7.78;;
64293;SDS011;50636;45.596;5.258;2023-01-20T10:21:47;15.43;;;8.02;;
64293;SDS011;50636;45.596;5.258;2023-01-20T10:24:19;13.50;;;7.40;;
64293;SDS011;50636;45.596;5.258;2023-01-20T10:27:00;8.70;;;6.55;;
64293;SDS011;50636;45.596;5.258;2023-01-20T10:29:34;14.48;;;7.95;;
64293;SDS011;50636;45.596;5.258;2023-01-20T10:32:03;19.75;;;7.18;;
64293;SDS011;50636;45.596;5.258;2023-01-20T10:34:40;17.00;;;8.27;;
64293;SDS011;50636;45.596;5.258;2023-01-20T10:37:10;14.15;;;7.32;;
64293;SDS011;50636;45.596;5.258;2023-01-20T10:42:15;13.05;;;7.18;;
64293;SDS011;50636;45.596;5.258;2023-01-20T10:44:42;10.73;;;6.95;;
64293;SDS011;50636;45.596;5.258;2023-01-20T10:58:29;11.48;;;6.68;;
64293;SDS011;50636;45.596;5.258;2023-01-20T11:01:16;13.00;;;7.38;;
64293;SDS011;50636;45.596;5.258;2023-01-20T11:03:46;17.00;;;7.97;;
64293;SDS011;50636;45.596;5.258;2023-01-20T11:08:41;14.57;;;9.10;;
64293;SDS011;50636;45.596;5.258;2023-01-20T11:11:11;19.35;;;10.25;;
64293;SDS011;50636;45.596;5.258;2023-01-20T11:13:40;12.90;;;8.90;;
64293;SDS011;50636;45.596;5.258;2023-01-20T11:16:16;13.10;;;10.02;;
64293;SDS011;50636;45.596;5.258;2023-01-20T11:18:56;12.60;;;10.32;;
64293;SDS011;50636;45.596;5.258;2023-01-20T11:21:31;13.18;;;9.15;;
64293;SDS011;50636;45.596;5.258;2023-01-20T11:24:00;15.93;;;9.90;;
64293;SDS011;50636;45.596;5.258;2023-01-20T11:26:32;12.50;;;9.70;;
64293;SDS011;50636;45.596;5.258;2023-01-20T11:34:20;15.68;;;9.35;;
64293;SDS011;50636;45.596;5.258;2023-01-20T11:37:16;14.60;;;10.25;;
64293;SDS011;50636;45.596;5.258;2023-01-20T11:42:40;14.55;;;8.98;;
64293;SDS011;50636;45.596;5.258;2023-01-20T11:45:21;15.30;;;9.98;;
64293;SDS011;50636;45.596;5.258;2023-01-20T11:50:39;11.45;;;9.70;;
64293;SDS011;50636;45.596;5.258;2023-01-20T11:53:11;16.92;;;11.52;;
64293;SDS011;50636;45.596;5.258;2023-01-20T11:55:47;13.30;;;9.77;;
64293;SDS011;50636;45.596;5.258;2023-01-20T11:58:16;12.25;;;9.45;;
64293;SDS011;50636;45.596;5.258;2023-01-20T12:00:43;15.88;;;9.40;;
64293;SDS011;50636;45.596;5.258;2023-01-20T12:03:25;17.80;;;10.38;;
64293;SDS011;50636;45.596;5.258;2023-01-20T12:06:27;17.30;;;10.85;;
64293;SDS011;50636;45.596;5.258;2023-01-20T12:09:35;17.67;;;9.98;;
64293;SDS011;50636;45.596;5.258;2023-01-20T12:12:03;19.65;;;9.55;;
64293;SDS011;50636;45.596;5.258;2023-01-20T12:14:49;14.00;;;10.05;;
64293;SDS011;50636;45.596;5.258;2023-01-20T12:20:09;14.50;;;10.10;;
64293;SDS011;50636;45.596;5.258;2023-01-20T12:23:00;13.40;;;9.88;;
64293;SDS011;50636;45.596;5.258;2023-01-20T12:30:54;13.43;;;10.43;;
64293;SDS011;50636;45.596;5.258;2023-01-20T12:33:44;15.20;;;9.90;;
64293;SDS011;50636;45.596;5.258;2023-01-20T12:52:50;11.35;;;8.48;;
64293;SDS011;50636;45.596;5.258;2023-01-20T12:55:46;13.77;;;9.20;;
64293;SDS011;50636;45.596;5.258;2023-01-20T13:10:20;17.50;;;10.20;;
64293;SDS011;50636;45.596;5.258;2023-01-20T13:12:30;15.82;;;9.07;;
64293;SDS011;50636;45.596;5.258;2023-01-20T13:15:08;18.55;;;9.35;;
64293;SDS011;50636;45.596;5.258;2023-01-20T13:20:31;19.27;;;9.38;;
64293;SDS011;50636;45.596;5.258;2023-01-20T13:23:02;13.32;;;9.50;;
64293;SDS011;50636;45.596;5.258;2023-01-20T13:25:29;16.13;;;8.68;;
64293;SDS011;50636;45.596;5.258;2023-01-20T13:27:56;17.85;;;9.13;;
64293;SDS011;50636;45.596;5.258;2023-01-20T13:33:15;12.23;;;9.27;;
64293;SDS011;50636;45.596;5.258;2023-01-20T13:36:15;12.88;;;8.88;;
64293;SDS011;50636;45.596;5.258;2023-01-20T13:38:46;17.48;;;8.75;;
64293;SDS011;50636;45.596;5.258;2023-01-20T13:47:10;12.75;;;8.38;;
64293;SDS011;50636;45.596;5.258;2023-01-20T13:57:52;11.93;;;8.13;;
64293;SDS011;50636;45.596;5.258;2023-01-20T14:00:18;14.45;;;8.88;;
64293;SDS011;50636;45.596;5.258;2023-01-20T14:02:44;15.52;;;8.43;;
64293;SDS011;50636;45.596;5.258;2023-01-20T14:05:46;11.68;;;8.07;;
64293;SDS011;50636;45.596;5.258;2023-01-20T14:08:09;12.43;;;9.05;;
64293;SDS011;50636;45.596;5.258;2023-01-20T14:10:38;11.45;;;6.65;;
64293;SDS011;50636;45.596;5.258;2023-01-20T14:13:10;13.10;;;6.80;;
64293;SDS011;50636;45.596;5.258;2023-01-20T14:15:42;10.85;;;7.07;;
64293;SDS011;50636;45.596;5.258;2023-01-20T14:18:12;13.77;;;7.45;;
64293;SDS011;50636;45.596;5.258;2023-01-20T14:20:39;10.70;;;6.88;;
64293;SDS011;50636;45.596;5.258;2023-01-20T14:26:13;12.25;;;6.97;;
64293;SDS011;50636;45.596;5.258;2023-01-20T14:28:47;10.93;;;6.65;;
64293;SDS011;50636;45.596;5.258;2023-01-20T14:33:55;15.17;;;10.13;;
64293;SDS011;50636;45.596;5.258;2023-01-20T14:36:25;13.15;;;6.70;;
64293;SDS011;50636;45.596;5.258;2023-01-20T14:38:58;8.75;;;6.38;;
64293;SDS011;50636;45.596;5.258;2023-01-20T14:41:27;15.30;;;7.47;;
64293;SDS011;50636;45.596;5.258;2023-01-20T14:43:55;11.48;;;6.13;;
64293;SDS011;50636;45.596;5.258;2023-01-20T14:46:22;10.63;;;7.18;;
64293;SDS011;50636;45.596;5.258;2023-01-20T14:48:49;14.48;;;6.35;;
64293;SDS011;50636;45.596;5.258;2023-01-20T14:51:17;10.75;;;6.25;;
64293;SDS011;50636;45.596;5.258;2023-01-20T14:53:43;12.52;;;6.43;;
64293;SDS011;50636;45.596;5.258;2023-01-20T14:56:17;11.65;;;6.80;;
64293;SDS011;50636;45.596;5.258;2023-01-20T14:58:45;12.55;;;6.30;;
64293;SDS011;50636;45.596;5.258;2023-01-20T15:01:25;9.18;;;5.90;;
64293;SDS011;50636;45.596;5.258;2023-01-20T15:03:57;10.02;;;5.20;;
64293;SDS011;50636;45.596;5.258;2023-01-20T15:06:26;9.37;;;5.67;;
64293;SDS011;50636;45.596;5.258;2023-01-20T15:08:52;6.90;;;4.95;;
64293;SDS011;50636;45.596;5.258;2023-01-20T15:11:23;10.32;;;5.00;;
64293;SDS011;50636;45.596;5.258;2023-01-20T15:16:26;13.13;;;3.78;;
64293;SDS011;50636;45.596;5.258;2023-01-20T15:21:37;7.78;;;4.00;;
64293;SDS011;50636;45.596;5.258;2023-01-20T15:24:15;6.68;;;4.00;;
64293;SDS011;50636;45.596;5.258;2023-01-20T15:26:46;8.27;;;4.00;;
64293;SDS011;50636;45.596;5.258;2023-01-20T15:29:35;7.00;;;3.85;;
64293;SDS011;50636;45.596;5.258;2023-01-20T15:32:01;8.77;;;3.58;;
64293;SDS011;50636;45.596;5.258;2023-01-20T15:34:34;7.00;;;4.35;;
64293;SDS011;50636;45.596;5.258;2023-01-20T15:37:00;11.25;;;3.60;;
64293;SDS011;50636;45.596;5.258;2023-01-20T15:39:26;10.05;;;3.30;;
64293;SDS011;50636;45.596;5.258;2023-01-20T15:41:56;11.70;;;4.05;;
64293;SDS011;50636;45.596;5.258;2023-01-20T15:44:22;12.38;;;6.25;;
64293;SDS011;50636;45.596;5.258;2023-01-20T15:46:49;9.57;;;4.75;;
64293;SDS011;50636;45.596;5.258;2023-01-20T15:49:15;4.93;;;4.07;;
64293;SDS011;50636;45.596;5.258;2023-01-20T15:51:41;7.72;;;4.22;;
64293;SDS011;50636;45.596;5.258;2023-01-20T15:54:09;9.40;;;4.40;;
64293;SDS011;50636;45.596;5.258;2023-01-20T15:56:35;7.32;;;4.20;;
64293;SDS011;50636;45.596;5.258;2023-01-20T15:59:13;14.77;;;5.53;;
64293;SDS011;50636;45.596;5.258;2023-01-20T16:01:40;9.25;;;4.18;;
64293;SDS011;50636;45.596;5.258;2023-01-20T16:04:06;7.47;;;4.10;;
64293;SDS011;50636;45.596;5.258;2023-01-20T16:06:33;6.05;;;3.88;;
64293;SDS011;50636;45.596;5.258;2023-01-20T16:08:59;6.75;;;4.20;;
64293;SDS011;50636;45.596;5.258;2023-01-20T16:11:26;7.85;;;4.47;;
64293;SDS011;50636;45.596;5.258;2023-01-20T16:13:51;8.48;;;4.78;;
64293;SDS011;50636;45.596;5.258;2023-01-20T16:16:18;6.57;;;4.57;;
64293;SDS011;50636;45.596;5.258;2023-01-20T16:18:45;7.13;;;4.57;;
64293;SDS011;50636;45.596;5.258;2023-01-20T16:21:12;6.93;;;4.85;;
64293;SDS011;50636;45.596;5.258;2023-01-20T16:23:40;15.27;;;5.22;;
64293;SDS011;50636;45.596;5.258;2023-01-20T16:26:26;9.85;;;4.70;;
64293;SDS011;50636;45.596;5.258;2023-01-20T16:28:54;8.82;;;4.70;;
64293;SDS011;50636;45.596;5.258;2023-01-20T16:31:21;8.02;;;5.43;;
64293;SDS011;50636;45.596;5.258;2023-01-20T16:33:48;13.82;;;5.63;;
64293;SDS011;50636;45.596;5.258;2023-01-20T16:36:14;14.00;;;6.07;;
64293;SDS011;50636;45.596;5.258;2023-01-20T16:38:41;9.50;;;5.85;;
64293;SDS011;50636;45.596;5.258;2023-01-20T16:41:26;6.72;;;5.30;;
64293;SDS011;50636;45.596;5.258;2023-01-20T16:43:55;13.60;;;6.18;;
64293;SDS011;50636;45.596;5.258;2023-01-20T16:46:21;9.05;;;5.75;;
64293;SDS011;50636;45.596;5.258;2023-01-20T16:48:49;10.95;;;5.88;;
64293;SDS011;50636;45.596;5.258;2023-01-20T16:51:16;15.63;;;9.80;;
64293;SDS011;50636;45.596;5.258;2023-01-20T16:53:46;16.77;;;9.32;;
64293;SDS011;50636;45.596;5.258;2023-01-20T16:56:13;12.95;;;7.72;;
64293;SDS011;50636;45.596;5.258;2023-01-20T16:58:45;10.57;;;6.90;;
64293;SDS011;50636;45.596;5.258;2023-01-20T17:01:11;16.73;;;7.47;;